Latest Coastal Weather Observations for Gunn Point

IDD60701

Issued at 10:41 pm CST Thursday 11 February 2016 (issued every 10 minutes, with the page automatically refreshed every 10 minutes)

About coastal observations | Map of coastal stations | Coastal observations for NT | Marine services | Other Formats
Station Details ID: 014023 Name: GUNN POINT Lat: -12.25 Lon: 131.04 Height: 25.0 m
Data from the previous 72 hours. | See also: Recent months for locations in Northern Territory
Date/Time
CST
Temp

°C
Wind Pressure Rain
since 9am
mm
Weather Cloud Vis
km
Sea
Height
m
Swell
Dir
 
Speed
knots
Gust
knots
hPa Trend Height
m
Period
s
Dir
11/10:30pm 26.1 CALM 0 0 1007.8 - 0.2 - - - - - - -
11/10:00pm 27.3 SW 1 4 1007.2 - 0.2 - - - - - - -
11/09:30pm 27.3 SW 4 7 1007.3 - 0.2 - - - - - - -
11/09:00pm 26.8 SSW 7 15 1007.5 - 0.2 - - - - - - -
11/08:30pm 30.2 WSW 6 13 1006.7 - 0.2 - - - - - - -
11/08:00pm 30.3 WSW 7 12 1006.1 - 0.2 - - - - - - -
11/07:30pm 30.2 W 6 10 1005.6 - 0.2 - - - - - - -
11/07:00pm 30.5 W 4 8 1005.4 - 0.2 - - - - - - -
11/06:30pm 30.9 WNW 5 11 1004.7 - 0.2 - - - - - - -
11/06:00pm 31.4 W 7 14 1004.6 - 0.2 - - - - - - -
11/05:30pm 31.6 W 7 13 1004.1 - 0.2 - - - - - - -
11/05:00pm 31.9 W 7 15 1003.7 - 0.2 - - - - - - -
11/04:30pm 31.6 WNW 6 12 1004.0 - 0.2 - - - - - - -
11/04:00pm 31.6 WNW 6 11 1004.1 - 0.2 - - - - - - -
11/03:30pm 31.9 W 6 9 1004.1 - 0.2 - - - - - - -
11/03:00pm 31.8 W 6 11 1004.5 - 0.2 - - - - - - -
11/02:30pm 31.9 W 7 11 1004.9 - 0.2 - - - - - - -
11/02:00pm 31.4 W 6 11 1005.3 - 0.2 - - - - - - -
11/01:30pm 31.2 WSW 6 10 1005.6 - 0.2 - - - - - - -
11/01:00pm 31.1 W 6 10 1006.0 - 0.2 - - - - - - -
11/12:30pm 31.1 W 6 13 1006.4 - 0.2 - - - - - - -
11/12:00pm 30.4 W 5 9 1006.7 - 0.2 - - - - - - -
11/11:30am 30.2 W 4 8 1007.1 - 0.2 - - - - - - -
11/11:00am 29.9 W 4 6 1007.3 - 0.2 - - - - - - -
11/10:30am 30.4 SW 1 4 1007.7 - 0.2 - - - - - - -
11/10:00am 29.7 SSW 1 3 1007.9 - 0.2 - - - - - - -
11/09:30am 28.9 SSE 2 4 1008.2 - 0.0 - - - - - - -
11/09:00am 27.6 W 1 4 1008.2 - 4.8 - - - - - - -
11/08:30am 25.9 CALM 0 1 1007.9 - 4.8 - - - - - - -
11/08:00am 25.7 CALM 0 1 1007.8 - 4.8 - - - - - - -
11/07:30am 25.6 ENE 2 4 1007.0 - 4.8 - - - - - - -
11/07:00am 25.4 NNE 1 2 1006.7 - 4.8 - - - - - - -
11/06:30am 25.2 ENE 2 3 1006.9 - 4.8 - - - - - - -
11/06:00am 25.2 SSE 4 6 1006.7 - 4.8 Recent precip. - - - - - -
11/05:30am 25.3 SSE 8 11 1006.8 - 4.8 - - - - - - -
11/05:00am 26.0 SSE 5 8 1006.9 - 1.4 - - - - - - -
11/04:30am 26.9 S 5 8 1007.2 - 1.4 - - - - - - -
11/04:00am 28.8 SW 4 7 1006.4 - 1.4 - - - - - - -
11/03:30am 28.3 WSW 2 4 1005.8 - 1.4 - - - - - - -
11/03:00am 28.8 W 3 7 1005.8 - 1.4 - - - - - - -
11/02:30am 29.3 W 5 10 1006.0 - 1.4 - - - - - - -
11/02:00am 29.3 W 5 8 1006.5 - 1.4 - - - - - - -
11/01:30am 29.4 W 5 8 1006.9 - 1.4 - - - - - - -
11/01:00am 29.4 W 6 11 1007.6 - 1.4 - - - - - - -
11/12:30am 29.3 W 5 10 1007.6 - 1.4 - - - - - - -
11/12:00am 29.2 WNW 5 9 1007.3 - 1.4 - - - - - - -
 
Date/Time
CST
Temp

°C
Wind Pressure Rain
since 9am
mm
Weather Cloud Vis
km
Sea
Height
m
Swell
Dir
 
Speed
knots
Gust
knots
hPa Trend Height
m
Period
s
Dir
10/11:30pm 29.0 WNW 4 7 1007.4 - 1.4 - - - - - - -
10/11:00pm 29.1 NW 4 7 1007.4 - 1.4 - - - - - - -
10/10:30pm 29.4 W 5 9 1007.2 - 1.4 - - - - - - -
10/10:00pm 29.2 W 5 11 1007.2 - 1.4 - - - - - - -
10/09:30pm 28.8 W 4 7 1007.2 - 1.4 - - - - - - -
10/09:00pm 28.6 W 4 7 1007.1 - 1.4 - - - - - - -
10/08:30pm 28.0 W 3 7 1006.9 - 1.4 - - - - - - -
10/08:00pm 26.5 CALM 0 0 1006.7 - 1.4 - - - - - - -
10/07:30pm 26.7 CALM 0 2 1006.2 - 1.4 - - - - - - -
10/07:00pm 26.7 CALM 0 0 1005.7 - 1.4 - - - - - - -
10/06:30pm 26.2 CALM 0 0 1005.4 - 1.4 - - - - - - -
10/06:00pm 25.5 N 2 3 1005.5 - 1.4 - - - - - - -
10/05:30pm 24.6 E 2 5 1005.9 - 1.4 - - - - - - -
10/05:00pm 24.3 ESE 7 15 1006.4 - 1.4 - - - - - - -
10/04:30pm 26.9 SE 4 12 1006.3 - 0.2 - - - - - - -
10/04:00pm 31.5 WNW 7 13 1004.8 - 0.2 - - - - - - -
10/03:30pm 32.3 WNW 6 10 1004.7 - 0.2 - - - - - - -
10/03:00pm 32.2 W 7 12 1005.1 - 0.2 - - - - - - -
10/02:30pm 32.2 W 8 13 1005.1 - 0.2 - - - - - - -
10/02:00pm 31.9 W 7 15 1005.4 - 0.2 - - - - - - -
10/01:30pm 32.0 W 6 12 1006.1 - 0.2 - - - - - - -
10/01:00pm 32.6 W 5 10 1006.6 - 0.2 - - - - - - -
10/12:30pm 31.5 W 6 12 1007.1 - 0.2 - - - - - - -
10/12:00pm 31.9 W 6 11 1007.5 - 0.2 - - - - - - -
10/11:30am 31.8 WSW 6 11 1007.6 - 0.2 - - - - - - -
10/11:00am 31.7 WSW 7 10 1007.7 - 0.2 - - - - - - -
10/10:30am 31.0 W 6 11 1007.9 - 0.2 - - - - - - -
10/10:00am 30.9 WSW 5 9 1007.9 - 0.0 - - - - - - -
10/09:30am 30.1 W 5 9 1008.3 - 0.0 - - - - - - -
10/09:00am 26.9 CALM 0 0 1008.2 - 0.8 - - - - - - -
10/08:30am 27.4 NW 4 7 1008.0 - 0.8 - - - - - - -
10/08:00am 27.8 W 6 11 1007.9 - 0.8 - - - - - - -
10/07:30am 29.4 W 4 8 1007.3 - 0.0 - - - - - - -
10/07:00am 29.0 W 4 7 1007.1 - 0.0 - - - - - - -
10/06:30am 28.9 W 3 6 1006.7 - 0.0 - - - - - - -
10/06:00am 28.8 W 3 7 1006.4 - 0.0 - - - - - - -
10/05:30am 28.7 W 4 8 1006.0 - 0.0 - - - - - - -
10/05:00am 28.6 WSW 4 7 1005.8 - 0.0 - - - - - - -
10/04:30am 28.3 W 3 7 1005.6 - 0.0 - - - - - - -
10/04:00am 27.9 W 3 6 1005.6 - 0.0 - - - - - - -
10/03:30am 27.0 CALM 0 3 1005.8 - 0.0 - - - - - - -
10/03:00am 26.7 CALM 0 0 1006.0 - 0.0 - - - - - - -
10/02:30am 26.7 CALM 0 0 1006.2 - 0.0 - - - - - - -
10/02:00am 26.4 CALM 0 0 1006.8 - 0.0 - - - - - - -
10/01:30am 26.5 NNE 1 3 1007.1 - 0.0 - - - - - - -
10/01:00am 26.8 CALM 0 0 1007.4 - 0.0 - - - - - - -
10/12:30am 27.0 CALM 0 0 1008.0 - 0.0 - - - - - - -
10/12:00am 27.2 NNW 1 3 1008.2 - 0.0 - - - - - - -
 
Date/Time
CST
Temp

°C
Wind Pressure Rain
since 9am
mm
Weather Cloud Vis
km
Sea
Height
m
Swell
Dir
 
Speed
knots
Gust
knots
hPa Trend Height
m
Period
s
Dir
09/11:30pm 27.6 NW 1 3 1008.5 - 0.0 - - - - - - -
09/11:00pm 27.6 W 2 4 1008.5 - 0.0 - - - - - - -
09/10:30pm 27.7 SW 1 3 1008.5 - 0.0 - - - - - - -
09/10:00pm 28.0 WSW 3 7 1008.4 - 0.0 - - - - - - -
09/09:30pm 28.3 WSW 3 5 1008.3 - 0.0 - - - - - - -
09/09:00pm 28.8 W 5 9 1008.0 - 0.0 - - - - - - -
09/08:30pm 28.1 WSW 2 4 1007.8 - 0.0 - - - - - - -
09/08:00pm 27.9 SW 2 6 1007.5 - 0.0 - - - - - - -
09/07:30pm 28.2 SW 3 6 1007.2 - 0.0 - - - - - - -
09/07:00pm 28.1 WSW 3 5 1006.9 - 0.0 - - - - - - -
09/06:30pm 28.4 WSW 4 6 1007.1 - 0.0 - - - - - - -
09/06:00pm 29.0 S 2 4 1007.0 - 0.0 - - - - - - -
09/05:30pm 29.4 S 6 10 1006.8 - 0.0 - - - - - - -
09/05:00pm 30.8 WSW 6 12 1006.6 - 0.0 - - - - - - -
09/04:30pm 31.8 WSW 8 12 1006.4 - 0.0 - - - - - - -
09/04:00pm 31.8 W 7 17 1005.7 - 0.0 - - - - - - -
09/03:30pm 31.7 W 6 13 1006.0 - 0.0 - - - - - - -
09/03:00pm 31.5 WNW 6 11 1006.0 - 0.0 - - - - - - -
09/02:30pm 31.3 W 6 10 1006.6 - 0.0 - - - - - - -
09/02:00pm 31.4 W 7 13 1007.1 - 0.0 - - - - - - -
09/01:30pm 31.6 W 6 10 1007.7 - 0.0 - - - - - - -
09/01:00pm 31.8 WSW 5 8 1008.0 - 0.0 - - - - - - -
09/12:30pm 31.2 W 5 8 1008.2 - 0.0 - - - - - - -
09/12:00pm 31.1 WNW 4 8 1008.6 - 0.0 - - - - - - -
09/11:30am 31.2 W 4 9 1008.9 - 0.0 - - - - - - -
09/11:00am 30.8 W 4 8 1009.1 - 0.0 - - - - - - -
09/10:30am 30.7 WNW 4 7 1009.4 - 0.0 - - - - - - -
09/10:00am 30.8 W 3 6 1009.5 - 0.0 - - - - - - -
09/09:30am 30.3 WNW 3 6 1009.6 - 0.0 - - - - - - -
09/09:00am 30.3 WNW 2 6 1009.5 - 1.6 - - - - - - -
09/08:30am 29.6 WNW 2 5 1009.0 - 1.6 - - - - - - -
09/08:00am 28.9 W 2 4 1008.8 - 1.6 - - - - - - -
09/07:30am 27.1 CALM 0 1 1008.5 - 1.6 - - - - - - -
09/07:00am 25.8 CALM 0 0 1008.3 - 1.6 - - - - - - -
09/06:30am 25.8 CALM 0 0 1007.9 - 1.6 - - - - - - -
09/06:00am 27.3 CALM 0 3 1007.6 - 1.6 - - - - - - -
09/05:30am 27.9 WNW 2 5 1007.2 - 1.6 - - - - - - -
09/05:00am 27.9 WNW 3 6 1006.9 - 1.6 - - - - - - -
09/04:30am 27.9 WNW 3 6 1006.7 - 1.6 - - - - - - -
09/04:00am 27.9 WNW 3 6 1006.9 - 1.6 - - - - - - -
09/03:30am 28.1 WNW 4 9 1006.9 - 1.6 - - - - - - -
09/03:00am 28.0 W 3 6 1007.1 - 1.6 - - - - - - -
09/02:30am 28.0 W 3 5 1007.2 - 1.6 - - - - - - -
09/02:00am 28.1 WNW 3 7 1007.5 - 1.6 - - - - - - -
09/01:30am 28.0 W 3 5 1007.7 - 1.6 - - - - - - -
09/01:00am 27.7 WNW 3 6 1008.0 - 1.6 - - - - - - -
09/12:30am 27.2 WNW 2 4 1008.2 - 1.6 - - - - - - -
09/12:00am 26.8 W 1 4 1008.3 - 1.6 - - - - - - -
 
Date/Time
CST
Temp

°C
Wind Pressure Rain
since 9am
mm
Weather Cloud Vis
km
Sea
Height
m
Swell
Dir
 
Speed
knots
Gust
knots
hPa Trend Height
m
Period
s
Dir
08/11:30pm 25.9 CALM 0 1 1008.5 - 1.6 - - - - - - -
08/11:00pm 26.3 WNW 1 3 1008.5 - 1.6 - - - - - - -

Other Formats:

Comma delimited format used in spreadsheet applications
http://www.bom.gov.au/fwo/IDD60701/IDD60701.99501.axf

JavaScript Object Notation format (JSON) in row-major order
http://www.bom.gov.au/fwo/IDD60701/IDD60701.99501.json